createdAt,value
2019-02-05T00:01:47.800Z,2.30
2019-02-05T00:04:17.633Z,2.40
2019-02-05T00:06:48.567Z,2.50
2019-02-05T00:09:17.531Z,2.40
2019-02-05T00:11:46.490Z,2.40
2019-02-05T00:14:16.211Z,2.50
2019-02-05T00:16:45.629Z,2.60
2019-02-05T00:19:16.572Z,2.80
2019-02-05T00:21:45.504Z,2.70
2019-02-05T00:24:14.260Z,2.60
2019-02-05T00:26:47.027Z,2.80
2019-02-05T00:29:16.928Z,2.80
2019-02-05T00:31:46.244Z,2.80
2019-02-05T00:34:15.847Z,2.60
2019-02-05T00:36:44.755Z,2.80
2019-02-05T00:39:13.974Z,2.70
2019-02-05T00:41:43.256Z,2.70
2019-02-05T00:44:13.400Z,2.80
2019-02-05T00:46:42.424Z,2.70
2019-02-05T00:49:11.344Z,2.70
2019-02-05T00:51:42.456Z,2.50
2019-02-05T00:54:11.248Z,2.50
2019-02-05T00:56:40.076Z,2.50
2019-02-05T00:59:10.660Z,2.70
2019-02-05T01:01:40.068Z,2.70
2019-02-05T01:04:08.996Z,2.80
2019-02-05T01:06:37.831Z,2.90
2019-02-05T01:09:09.706Z,2.90
2019-02-05T01:11:39.455Z,2.90
2019-02-05T01:14:08.436Z,2.80
2019-02-05T01:16:37.407Z,2.90
2019-02-05T01:19:06.389Z,2.80
2019-02-05T01:21:36.552Z,2.90
2019-02-05T01:24:05.620Z,2.90
2019-02-05T01:26:34.920Z,2.90
2019-02-05T01:29:03.918Z,2.90
2019-02-05T01:31:33.767Z,2.90
2019-02-05T01:34:03.836Z,2.90
2019-02-05T01:36:34.649Z,2.70
2019-02-05T01:39:05.956Z,2.90
2019-02-05T01:41:35.668Z,3.00
2019-02-05T01:44:04.656Z,3.00
2019-02-05T01:46:35.291Z,3.10
2019-02-05T01:49:04.312Z,3.20
2019-02-05T01:51:33.870Z,3.20
2019-02-05T01:54:02.775Z,3.20
2019-02-05T01:56:40.346Z,3.20
2019-02-05T01:59:05.955Z,3.10
2019-02-05T02:01:35.468Z,3.10
2019-02-05T02:04:05.580Z,3.20
2019-02-05T02:06:36.811Z,3.30
2019-02-05T02:09:06.748Z,3.40
2019-02-05T02:11:36.050Z,3.40
2019-02-05T02:14:07.017Z,3.40
2019-02-05T02:16:36.836Z,3.20
2019-02-05T02:19:05.797Z,3.30
2019-02-05T02:21:35.825Z,3.30
2019-02-05T02:24:06.975Z,3.30
2019-02-05T02:26:38.857Z,3.30
2019-02-05T02:29:07.824Z,3.30
2019-02-05T02:31:38.117Z,3.30
2019-02-05T02:34:07.843Z,3.20
2019-02-05T02:36:37.004Z,3.20
2019-02-05T02:39:07.609Z,3.30
2019-02-05T02:41:38.056Z,3.20
2019-02-05T02:44:07.985Z,3.10
2019-02-05T02:46:37.842Z,3.30
2019-02-05T02:49:07.120Z,3.40
2019-02-05T02:51:36.820Z,3.40
2019-02-05T02:54:05.892Z,3.30
2019-02-05T02:56:34.939Z,3.30
2019-02-05T02:59:04.064Z,3.40
2019-02-05T03:01:34.072Z,3.30
2019-02-05T03:04:04.449Z,3.20
2019-02-05T03:06:34.902Z,3.30
2019-02-05T03:09:08.908Z,3.30
2019-02-05T03:11:38.668Z,3.30
2019-02-05T03:14:08.402Z,3.30
2019-02-05T03:16:37.799Z,3.00
2019-02-05T03:19:07.652Z,3.20
2019-02-05T03:21:37.591Z,3.30
2019-02-05T03:24:07.461Z,3.40
2019-02-05T03:26:36.405Z,3.30
2019-02-05T03:29:07.767Z,3.30
2019-02-05T03:31:38.019Z,3.30
2019-02-05T03:34:07.634Z,3.30
2019-02-05T03:36:37.193Z,3.30
2019-02-05T03:39:07.499Z,3.30
2019-02-05T03:41:38.396Z,3.30
2019-02-05T03:44:07.639Z,3.30
2019-02-05T03:46:38.485Z,3.30
2019-02-05T03:49:07.668Z,3.20
2019-02-05T03:52:06.737Z,3.20
2019-02-05T03:55:29.789Z,3.20
2019-02-05T03:58:27.421Z,3.30
2019-02-05T04:01:35.045Z,3.30
2019-02-05T04:04:40.679Z,3.30
2019-02-05T04:08:07.104Z,3.30
2019-02-05T04:11:20.967Z,3.40
2019-02-05T04:14:31.337Z,3.40
2019-02-05T04:17:30.307Z,3.40
2019-02-05T04:20:31.432Z,3.40
2019-02-05T04:23:45.947Z,3.40
2019-02-05T04:26:51.793Z,3.40
2019-02-05T04:29:45.997Z,3.30
2019-02-05T04:33:00.891Z,3.40
2019-02-05T04:36:11.421Z,3.40
2019-02-05T04:39:07.368Z,3.30
2019-02-05T04:42:05.924Z,3.40
2019-02-05T04:45:12.028Z,3.40
2019-02-05T04:48:18.781Z,3.50
2019-02-05T04:51:23.936Z,3.50
2019-02-05T04:54:45.539Z,3.30
2019-02-05T04:57:35.404Z,3.50
2019-02-05T05:00:34.667Z,3.50
2019-02-05T05:03:36.717Z,3.40
2019-02-05T05:06:33.252Z,3.50
2019-02-05T05:09:48.036Z,3.60
2019-02-05T05:12:18.632Z,3.50
2019-02-05T05:14:48.052Z,3.40
2019-02-05T05:17:16.973Z,3.50
2019-02-05T05:19:47.421Z,3.60
2019-02-05T05:22:17.715Z,3.70
2019-02-05T05:24:48.312Z,3.60
2019-02-05T05:27:19.922Z,3.70
2019-02-05T05:29:50.845Z,3.60
2019-02-05T05:32:20.932Z,3.60
2019-02-05T05:34:50.277Z,3.60
2019-02-05T05:37:18.196Z,3.50
2019-02-05T05:39:47.408Z,3.50
2019-02-05T05:42:18.162Z,3.60
2019-02-05T05:44:47.438Z,3.60
2019-02-05T05:47:16.788Z,3.70
2019-02-05T05:49:46.207Z,3.80
2019-02-05T05:52:15.860Z,3.70
2019-02-05T05:54:46.290Z,3.70
2019-02-05T05:57:18.705Z,3.70
2019-02-05T05:59:46.431Z,3.70
2019-02-05T06:02:17.959Z,3.70
2019-02-05T06:04:47.760Z,3.70
2019-02-05T06:07:17.016Z,3.80
2019-02-05T06:09:46.607Z,3.70
2019-02-05T06:12:16.548Z,3.50
2019-02-05T06:14:46.332Z,3.50
2019-02-05T06:17:16.346Z,3.60
2019-02-05T06:19:45.254Z,3.60
2019-02-05T06:22:14.748Z,3.80
2019-02-05T06:24:44.209Z,3.70
2019-02-05T06:27:13.676Z,3.80
2019-02-05T06:29:43.325Z,3.90
2019-02-05T06:32:12.732Z,3.80
2019-02-05T06:34:42.111Z,3.70
2019-02-05T06:37:11.330Z,3.70
2019-02-05T06:39:41.640Z,3.70
2019-02-05T06:42:10.581Z,3.70
2019-02-05T06:44:41.196Z,3.70
2019-02-05T06:47:11.192Z,3.80
2019-02-05T06:49:44.276Z,3.70
2019-02-05T06:52:16.007Z,3.80
2019-02-05T06:54:47.535Z,3.80
2019-02-05T06:57:17.095Z,3.70
2019-02-05T06:59:47.236Z,3.70
2019-02-05T07:02:18.079Z,3.70
2019-02-05T07:04:46.912Z,3.70
2019-02-05T07:07:19.470Z,3.70
2019-02-05T07:09:48.241Z,3.60
2019-02-05T07:12:18.524Z,3.60
2019-02-05T07:14:47.985Z,3.70
2019-02-05T07:17:19.129Z,3.70
2019-02-05T07:19:48.316Z,3.70
2019-02-05T07:22:17.141Z,3.80
2019-02-05T07:24:46.424Z,3.70
2019-02-05T07:27:15.548Z,3.70
2019-02-05T07:29:45.268Z,3.60
2019-02-05T07:32:14.963Z,3.70
2019-02-05T07:34:43.910Z,3.70
2019-02-05T07:37:14.107Z,3.60
2019-02-05T07:39:43.421Z,3.70
2019-02-05T07:42:12.722Z,4.00
2019-02-05T07:44:41.702Z,3.90
2019-02-05T07:47:11.171Z,4.00
2019-02-05T07:49:40.329Z,4.00
2019-02-05T07:52:10.382Z,4.00
2019-02-05T07:54:40.332Z,4.00
2019-02-05T07:57:09.916Z,4.00
2019-02-05T07:59:39.176Z,4.00
2019-02-05T08:02:08.155Z,4.00
2019-02-05T08:04:38.151Z,3.90
2019-02-05T08:07:07.793Z,4.00
2019-02-05T08:09:37.060Z,4.00
2019-02-05T08:12:07.180Z,4.00
2019-02-05T08:14:37.384Z,4.00
2019-02-05T08:17:07.104Z,4.00
2019-02-05T08:19:36.099Z,4.00
2019-02-05T08:22:05.637Z,4.00
2019-02-05T08:24:36.228Z,4.10
2019-02-05T08:27:05.692Z,4.20
2019-02-05T08:29:36.808Z,4.10
2019-02-05T08:32:06.396Z,4.20
2019-02-05T08:34:35.233Z,4.30
2019-02-05T08:37:06.408Z,4.30
2019-02-05T08:39:36.993Z,4.30
2019-02-05T08:42:06.364Z,4.30
2019-02-05T08:44:36.013Z,4.40
2019-02-05T08:47:05.447Z,4.40
2019-02-05T08:49:36.026Z,4.40
2019-02-05T08:52:06.494Z,4.40
2019-02-05T08:54:35.600Z,4.50
2019-02-05T08:57:05.524Z,4.50
2019-02-05T08:59:34.898Z,4.70
2019-02-05T09:02:05.964Z,4.80
2019-02-05T09:04:37.725Z,4.70
2019-02-05T09:07:06.981Z,4.70
2019-02-05T09:09:37.035Z,4.60
2019-02-05T09:12:06.428Z,4.60
2019-02-05T09:14:36.864Z,4.60
2019-02-05T09:17:07.391Z,4.60
2019-02-05T09:19:37.236Z,4.60
2019-02-05T09:22:06.504Z,4.60
2019-02-05T09:24:36.321Z,4.70
2019-02-05T09:27:05.797Z,4.80
2019-02-05T09:29:35.021Z,4.70
2019-02-05T09:32:04.137Z,4.40
2019-02-05T09:34:33.438Z,4.50
2019-02-05T09:37:04.868Z,4.50
2019-02-05T09:39:34.979Z,4.60
2019-02-05T09:42:04.708Z,4.70
2019-02-05T09:44:35.405Z,4.70
2019-02-05T09:47:05.440Z,4.70
2019-02-05T09:49:34.858Z,4.80
2019-02-05T09:52:04.664Z,5.10
2019-02-05T09:54:34.076Z,5.10
2019-02-05T09:57:04.320Z,5.10
2019-02-05T09:59:44.874Z,5.10
2019-02-05T10:02:04.058Z,5.00
2019-02-05T10:04:33.180Z,4.90
2019-02-05T10:07:03.764Z,4.90
2019-02-05T10:09:35.197Z,5.00
2019-02-05T10:12:05.233Z,5.00
2019-02-05T10:14:35.935Z,5.10
2019-02-05T10:17:05.516Z,5.00
2019-02-05T10:19:35.181Z,5.10
2019-02-05T10:22:05.263Z,5.20
2019-02-05T10:24:34.910Z,5.10
2019-02-05T10:27:04.105Z,5.10
2019-02-05T10:29:33.480Z,5.20
2019-02-05T10:32:03.097Z,5.20
2019-02-05T10:34:34.441Z,5.10
2019-02-05T10:37:04.360Z,5.00
2019-02-05T10:39:35.385Z,5.00
2019-02-05T10:42:04.532Z,4.90
2019-02-05T10:44:35.961Z,4.90
2019-02-05T10:47:06.404Z,4.90
2019-02-05T10:49:37.786Z,5.10
2019-02-05T10:52:06.882Z,5.10
2019-02-05T10:54:35.717Z,5.00
2019-02-05T10:57:04.838Z,5.30
2019-02-05T10:59:35.254Z,5.40
2019-02-05T11:02:06.203Z,5.60
2019-02-05T11:04:36.614Z,5.40
2019-02-05T11:07:06.294Z,5.50
2019-02-05T11:09:37.912Z,5.60
2019-02-05T11:12:07.256Z,5.70
2019-02-05T11:14:35.986Z,5.80
2019-02-05T11:17:05.236Z,5.80
2019-02-05T11:19:35.059Z,5.80
2019-02-05T11:22:06.008Z,5.90
2019-02-05T11:24:36.479Z,5.90
2019-02-05T11:27:24.832Z,6.10
2019-02-05T11:29:54.593Z,6.00
2019-02-05T11:32:24.051Z,6.00
2019-02-05T11:34:53.044Z,6.00
2019-02-05T11:37:22.341Z,6.00
2019-02-05T11:39:52.204Z,6.10
2019-02-05T11:42:21.390Z,6.00
2019-02-05T11:44:50.760Z,6.00
2019-02-05T11:47:19.580Z,6.00
2019-02-05T11:49:48.980Z,6.10
2019-02-05T11:52:18.103Z,6.20
2019-02-05T11:54:47.461Z,6.10
2019-02-05T11:57:16.669Z,6.30
2019-02-05T11:59:47.328Z,6.30
2019-02-05T12:02:17.640Z,6.20
2019-02-05T12:04:46.424Z,6.20
2019-02-05T12:07:16.134Z,6.30
2019-02-05T12:09:46.016Z,6.40
2019-02-05T12:12:16.430Z,6.40
2019-02-05T12:14:46.801Z,6.40
2019-02-05T12:17:17.867Z,6.40
2019-02-05T12:19:48.008Z,6.40
2019-02-05T12:22:18.308Z,6.30
2019-02-05T12:24:49.912Z,6.50
2019-02-05T12:27:20.877Z,6.50
2019-02-05T12:29:50.061Z,6.70
2019-02-05T12:32:20.149Z,6.80
2019-02-05T12:34:49.477Z,6.50
2019-02-05T12:37:19.014Z,6.50
2019-02-05T12:39:48.148Z,6.40
2019-02-05T12:42:17.058Z,6.30
2019-02-05T12:44:45.950Z,6.30
2019-02-05T12:47:15.103Z,6.20
2019-02-05T12:49:43.904Z,6.20
2019-02-05T12:52:14.100Z,6.30
2019-02-05T12:54:46.266Z,6.20
2019-02-05T12:57:15.871Z,6.30
2019-02-05T12:59:44.676Z,6.30
2019-02-05T13:02:13.952Z,6.20
2019-02-05T13:04:42.749Z,6.20
2019-02-05T13:07:11.749Z,6.20
2019-02-05T13:09:40.602Z,6.10
2019-02-05T13:12:09.442Z,6.20
2019-02-05T13:14:38.682Z,6.20
2019-02-05T13:17:08.875Z,6.00
2019-02-05T13:19:37.656Z,6.00
2019-02-05T13:22:06.736Z,5.90
2019-02-05T13:24:35.530Z,6.00
2019-02-05T13:27:04.520Z,6.20
2019-02-05T13:29:34.752Z,6.20
2019-02-05T13:32:07.647Z,6.20
2019-02-05T13:34:36.525Z,6.20
2019-02-05T13:37:05.685Z,6.20
2019-02-05T13:39:34.820Z,6.20
2019-02-05T13:42:03.951Z,6.30
2019-02-05T13:44:32.876Z,6.30
2019-02-05T13:47:02.112Z,6.30
2019-02-05T13:49:30.961Z,6.30
2019-02-05T13:51:59.864Z,6.30
2019-02-05T13:54:28.676Z,6.30
2019-02-05T13:56:57.556Z,6.40
2019-02-05T13:59:26.791Z,6.40
2019-02-05T14:01:56.019Z,6.40
2019-02-05T14:04:24.910Z,6.30
2019-02-05T14:06:54.444Z,6.20
2019-02-05T14:09:23.412Z,6.20
2019-02-05T14:11:52.491Z,6.30
2019-02-05T14:14:22.688Z,6.20
2019-02-05T14:16:51.564Z,6.30
2019-02-05T14:19:20.912Z,6.40
2019-02-05T14:21:49.816Z,6.30
2019-02-05T14:24:19.012Z,6.30
2019-02-05T14:26:48.020Z,6.20
2019-02-05T14:29:16.836Z,6.20
2019-02-05T14:31:45.556Z,5.90
2019-02-05T14:34:14.521Z,6.10
2019-02-05T14:36:43.304Z,6.10
2019-02-05T14:39:12.409Z,6.20
2019-02-05T14:41:41.244Z,6.30
2019-02-05T14:44:09.952Z,6.30
2019-02-05T14:46:39.196Z,6.20
2019-02-05T14:49:08.361Z,6.30
2019-02-05T14:51:37.346Z,6.20
2019-02-05T14:54:06.791Z,6.20
2019-02-05T14:56:35.602Z,6.20
2019-02-05T14:59:04.602Z,6.20
2019-02-05T15:01:42.682Z,6.20
2019-02-05T15:04:04.656Z,6.30
2019-02-05T15:06:33.756Z,6.30
2019-02-05T15:09:05.547Z,6.30
2019-02-05T15:11:34.937Z,6.20
2019-02-05T15:14:03.828Z,6.30
2019-02-05T15:16:32.656Z,6.30
2019-02-05T15:19:01.573Z,6.00
2019-02-05T15:21:30.288Z,6.10
2019-02-05T15:23:59.060Z,6.20
2019-02-05T15:26:28.068Z,6.10
2019-02-05T15:28:56.915Z,6.00
2019-02-05T15:31:26.774Z,6.10
2019-02-05T15:34:02.829Z,6.30
2019-02-05T15:36:33.597Z,6.20
2019-02-05T15:39:02.523Z,6.20
2019-02-05T15:41:31.516Z,6.10
2019-02-05T15:44:00.842Z,6.10
2019-02-05T15:46:31.221Z,6.10
2019-02-05T15:49:00.583Z,6.10
2019-02-05T15:51:29.443Z,6.10
2019-02-05T15:54:00.527Z,6.00
2019-02-05T15:56:30.224Z,6.00
2019-02-05T15:59:01.150Z,5.90
2019-02-05T16:01:31.169Z,5.90
2019-02-05T16:04:00.060Z,5.90
2019-02-05T16:06:28.920Z,6.00
2019-02-05T16:08:57.841Z,5.90
2019-02-05T16:11:26.814Z,6.00
2019-02-05T16:13:55.697Z,6.00
2019-02-05T16:16:25.440Z,6.10
2019-02-05T16:18:54.521Z,6.00
2019-02-05T16:21:23.824Z,5.90
2019-02-05T16:23:53.080Z,6.00
2019-02-05T16:26:23.200Z,5.90
2019-02-05T16:28:52.214Z,6.00
2019-02-05T16:31:21.416Z,5.90
2019-02-05T16:33:52.209Z,6.00
2019-02-05T16:36:21.014Z,6.00
2019-02-05T16:38:50.290Z,6.00
2019-02-05T16:41:19.084Z,6.00
2019-02-05T16:43:47.883Z,5.90
2019-02-05T16:46:16.879Z,5.80
2019-02-05T16:48:45.764Z,5.90
2019-02-05T16:51:14.548Z,5.80
2019-02-05T16:53:43.657Z,5.70
2019-02-05T16:56:17.803Z,5.70
2019-02-05T16:58:46.150Z,5.70
2019-02-05T17:01:17.156Z,5.80
2019-02-05T17:03:47.796Z,5.80
2019-02-05T17:06:17.616Z,5.70
2019-02-05T17:08:46.585Z,5.60
2019-02-05T17:11:15.353Z,5.70
2019-02-05T17:13:44.543Z,5.60
2019-02-05T17:16:13.652Z,5.70
2019-02-05T17:18:42.649Z,5.70
2019-02-05T17:21:11.509Z,5.70
2019-02-05T17:23:40.743Z,5.60
2019-02-05T17:26:09.604Z,5.60
2019-02-05T17:28:39.014Z,5.50
2019-02-05T17:31:08.035Z,5.50
2019-02-05T17:33:37.164Z,5.50
2019-02-05T17:36:06.307Z,5.60
2019-02-05T17:38:35.198Z,5.60
2019-02-05T17:41:07.123Z,5.50
2019-02-05T17:43:36.174Z,5.40
2019-02-05T17:46:06.675Z,5.50
2019-02-05T17:48:35.604Z,5.40
2019-02-05T17:51:04.796Z,5.30
2019-02-05T17:53:33.684Z,5.30
2019-02-05T17:56:02.584Z,5.30
2019-02-05T17:58:31.324Z,5.30
2019-02-05T18:01:08.868Z,5.20
2019-02-05T18:03:37.813Z,5.20
2019-02-05T18:06:07.663Z,5.20
2019-02-05T18:08:36.599Z,5.30
2019-02-05T18:11:06.378Z,5.40
2019-02-05T18:13:35.328Z,5.40
2019-02-05T18:16:12.471Z,5.30
2019-02-05T18:18:41.455Z,5.30
2019-02-05T18:21:10.448Z,5.30
2019-02-05T18:23:39.215Z,5.30
2019-02-05T18:26:08.290Z,5.30
2019-02-05T18:28:37.570Z,5.20
2019-02-05T18:31:06.620Z,5.30
2019-02-05T18:33:36.332Z,5.20
2019-02-05T18:36:05.923Z,5.20
2019-02-05T18:38:35.002Z,5.10
2019-02-05T18:41:04.277Z,5.20
2019-02-05T18:43:33.598Z,5.20
2019-02-05T18:46:02.649Z,5.20
2019-02-05T18:48:31.486Z,5.10
2019-02-05T18:51:00.353Z,5.10
2019-02-05T18:53:29.859Z,5.00
2019-02-05T18:55:58.784Z,4.90
2019-02-05T18:58:29.782Z,4.80
2019-02-05T19:00:59.324Z,4.70
2019-02-05T19:03:28.120Z,4.70
2019-02-05T19:05:57.137Z,4.70
2019-02-05T19:08:25.899Z,4.50
2019-02-05T19:10:54.700Z,4.50
2019-02-05T19:13:24.752Z,4.50
2019-02-05T19:15:53.528Z,4.50
2019-02-05T19:18:22.565Z,4.60
2019-02-05T19:20:53.588Z,4.50
2019-02-05T19:23:22.465Z,4.50
2019-02-05T19:26:12.921Z,4.50
2019-02-05T19:28:42.772Z,4.40
2019-02-05T19:31:44.698Z,4.40
2019-02-05T19:34:13.577Z,4.40
2019-02-05T19:36:42.373Z,4.30
2019-02-05T19:39:11.231Z,4.30
2019-02-05T19:41:40.336Z,4.30
2019-02-05T19:44:09.211Z,4.30
2019-02-05T19:46:47.979Z,4.40
2019-02-05T19:49:29.129Z,4.40
2019-02-05T19:51:58.138Z,4.20
2019-02-05T19:54:30.252Z,4.30
2019-02-05T19:56:59.379Z,4.20
2019-02-05T19:59:28.712Z,4.10
2019-02-05T20:01:57.720Z,4.20
2019-02-05T20:04:26.914Z,4.20
2019-02-05T20:06:55.854Z,4.20
2019-02-05T20:09:24.784Z,4.20
2019-02-05T20:11:53.637Z,4.10
2019-02-05T20:14:22.596Z,4.10
2019-02-05T20:16:51.419Z,4.20
2019-02-05T20:19:24.689Z,4.10
2019-02-05T20:21:53.500Z,4.00
2019-02-05T20:24:22.339Z,3.80
2019-02-05T20:26:51.101Z,3.70
2019-02-05T20:29:20.170Z,3.60
2019-02-05T20:31:49.013Z,3.60
2019-02-05T20:34:17.830Z,3.60
2019-02-05T20:36:46.896Z,3.60
2019-02-05T20:39:17.282Z,3.50
2019-02-05T20:41:47.333Z,3.30
2019-02-05T20:44:16.228Z,3.30
2019-02-05T20:46:45.679Z,3.30
2019-02-05T20:49:14.719Z,3.20
2019-02-05T20:51:44.296Z,3.10
2019-02-05T20:54:13.285Z,3.00
2019-02-05T20:56:42.510Z,2.90
2019-02-05T20:59:11.472Z,2.80
2019-02-05T21:01:40.768Z,2.90
2019-02-05T21:04:09.676Z,2.80
2019-02-05T21:06:38.821Z,2.70
2019-02-05T21:09:19.627Z,2.70
2019-02-05T21:11:49.044Z,2.70
2019-02-05T21:14:18.435Z,2.70
2019-02-05T21:16:47.663Z,2.60
2019-02-05T21:19:16.846Z,2.60
2019-02-05T21:21:46.051Z,2.50
2019-02-05T21:24:15.189Z,2.50
2019-02-05T21:26:46.770Z,2.40
2019-02-05T21:29:15.624Z,2.30
2019-02-05T21:31:44.716Z,2.30
2019-02-05T21:34:15.772Z,2.30
2019-02-05T21:36:44.292Z,2.40
2019-02-05T21:39:13.784Z,2.40
2019-02-05T21:41:43.413Z,2.30
2019-02-05T21:44:13.372Z,2.20
2019-02-05T21:46:42.476Z,2.20
2019-02-05T21:49:11.828Z,2.20
2019-02-05T21:51:42.086Z,2.20
2019-02-05T21:54:11.410Z,2.20
2019-02-05T21:56:40.380Z,2.20
2019-02-05T21:59:09.291Z,2.00
2019-02-05T22:01:38.131Z,2.10
2019-02-05T22:04:09.997Z,2.00
2019-02-05T22:06:37.868Z,2.00
2019-02-05T22:09:11.045Z,2.00
2019-02-05T22:11:41.019Z,2.00
2019-02-05T22:14:10.033Z,2.00
2019-02-05T22:16:38.967Z,2.00
2019-02-05T22:19:08.151Z,2.00
2019-02-05T22:21:37.534Z,2.00
2019-02-05T22:24:06.528Z,2.00
2019-02-05T22:26:36.184Z,2.00
2019-02-05T22:29:05.982Z,1.90
2019-02-05T22:31:34.837Z,2.00
2019-02-05T22:34:04.218Z,1.90
2019-02-05T22:36:33.131Z,1.90
2019-02-05T22:39:02.008Z,1.80
2019-02-05T22:41:30.840Z,1.90
2019-02-05T22:43:59.726Z,1.90
2019-02-05T22:46:28.691Z,1.80
2019-02-05T22:48:57.624Z,1.70
2019-02-05T22:51:26.420Z,1.60
2019-02-05T22:53:55.592Z,1.60
2019-02-05T22:56:24.696Z,1.60
2019-02-05T22:58:54.065Z,1.70
2019-02-05T23:01:38.531Z,1.70
2019-02-05T23:04:15.658Z,1.60
2019-02-05T23:07:10.493Z,1.70
2019-02-05T23:10:17.956Z,1.70
2019-02-05T23:12:51.644Z,1.60
2019-02-05T23:15:25.702Z,1.60
2019-02-05T23:17:54.571Z,1.50
2019-02-05T23:20:24.333Z,1.40
2019-02-05T23:22:56.983Z,1.40
2019-02-05T23:25:25.744Z,1.20
2019-02-05T23:27:54.774Z,1.10
2019-02-05T23:30:31.061Z,1.00
2019-02-05T23:33:00.525Z,0.90
2019-02-05T23:35:32.538Z,0.80
2019-02-05T23:38:00.785Z,0.80
2019-02-05T23:40:29.744Z,0.90
2019-02-05T23:42:58.849Z,0.90
2019-02-05T23:45:28.060Z,0.90
2019-02-05T23:47:56.796Z,1.00
2019-02-05T23:50:25.958Z,1.00
2019-02-05T23:52:54.683Z,1.00
2019-02-05T23:55:23.482Z,1.10
2019-02-05T23:57:52.502Z,1.00
